Kezdőlap
METAR-TAF:

METAR-TAF

Repülőterek :

Saint-Brieuc, Franciaország

földrajzi szélesség: 48-32N, földrajzi hosszúság: 002-51W, magasság: 138 m

Jelenlegi meteorológiai megfigyelések

A jelentés 28 perccel ezelõtt készült, 12:00 UTC
Délnyugati szél 11 kt, déli és nyugat-délnyugati között változik
Hőmérséklet 10°C
Páratartalom 66%
Légköri nyomás 1002 hPa
Látótávolság 10 km, vagy több
felhőtlen 1500 m magasságban, és nincs gomolyfelhõ

METAR: LFRT 151200Z AUTO 22011KT 190V250 CAVOK 10/04 Q1002

Idő: 13:28 (12:28 UTC)


TAF: hiányzik

Meteorológiai megfigyelések és előrejelzések több, mint 4000 repülőtéren (METAR és TAF jelentéseket).

A térképen piros és sárga pontok jelzik az elérhető meteorológiai állomásokat.

Mozgassa az egeret a pont fölött, hogy megjelenjen az állomás neve.

Azután kattintson az időjárási megfigyelések és előrejelzések megtekintéséhez.

A térkép megváltoztatása: kattintson a fekete keresztel jelölt zöld gombra ráközelítéshez, a vonallal jelölt zöld gombra távolításhoz, vagy a zöld nyilakra a szomszédos térképek eléréséhez.


METAR-TAF: